Time;durP1;ratioP1;P1;durP2;ratioP2;P2;SDS_P1;SDS_P2;PMS_P1;PMS_P2;Temp;Humidity;BMP_temperature;BMP_pressure;BME280_temperature;BME280_humidity;BME280_pressure;Samples;Min_cycle;Max_cycle;Signal;HPM_P1;HPM_P2
2023/10/10 00:01:48;;;;;;;28.83;5.17;;;17.70;99.90;;;;;;5048833;28;20557;-72
2023/10/10 00:04:19;;;;;;;18.20;5.37;;;17.60;99.90;;;;;;5047585;28;20439;-72
2023/10/10 00:06:45;;;;;;;26.23;5.67;;;17.50;99.90;;;;;;5048779;28;20445;-72
2023/10/10 00:09:11;;;;;;;17.73;4.30;;;17.60;99.90;;;;;;5047463;28;20434;-72
2023/10/10 00:11:41;;;;;;;18.73;4.73;;;17.60;99.90;;;;;;5049339;28;20184;-72
2023/10/10 00:14:15;;;;;;;19.10;4.30;;;17.50;99.90;;;;;;5050917;28;20425;-72
2023/10/10 00:16:41;;;;;;;19.80;4.40;;;17.50;99.90;;;;;;5051949;28;20475;-72
2023/10/10 00:21:50;;;;;;;19.57;5.23;;;17.40;99.90;;;;;;5052082;28;20429;-72
2023/10/10 00:24:20;;;;;;;29.77;4.83;;;17.40;99.90;;;;;;5051881;28;20809;-73
2023/10/10 00:26:47;;;;;;;23.67;5.33;;;17.40;99.90;;;;;;5051758;28;20442;-72
2023/10/10 00:29:13;;;;;;;21.90;4.67;;;17.40;99.90;;;;;;5051739;28;20425;-73
2023/10/10 00:31:43;;;;;;;21.47;4.80;;;17.40;99.90;;;;;;5051804;28;20807;-73
2023/10/10 00:34:09;;;;;;;25.13;5.33;;;17.40;99.90;;;;;;5050323;28;20490;-73
2023/10/10 00:36:35;;;;;;;25.57;5.00;;;17.30;99.90;;;;;;5051378;28;20484;-72
2023/10/10 00:39:07;;;;;;;19.93;4.90;;;17.30;99.90;;;;;;5050004;28;20426;-72
2023/10/10 00:41:56;;;;;;;17.33;4.83;;;17.20;99.90;;;;;;5051494;28;20424;-73
2023/10/10 00:44:22;;;;;;;13.73;4.23;;;17.20;99.90;;;;;;5051159;28;20528;-73
2023/10/10 00:46:51;;;;;;;13.13;4.20;;;17.20;99.90;;;;;;5051214;28;20445;-73
2023/10/10 00:49:23;;;;;;;22.73;5.27;;;17.10;99.90;;;;;;5050162;28;20453;-73
2023/10/10 00:51:54;;;;;;;22.67;5.07;;;17.00;99.90;;;;;;5051155;28;20425;-72
2023/10/10 00:56:54;;;;;;;16.87;4.93;;;16.90;99.90;;;;;;5049745;28;20476;-73
2023/10/10 00:59:20;;;;;;;19.93;4.87;;;16.90;99.90;;;;;;5051127;28;20425;-73
2023/10/10 01:01:47;;;;;;;22.40;5.53;;;16.90;99.90;;;;;;5050998;28;20444;-73
2023/10/10 01:04:13;;;;;;;22.27;4.43;;;16.90;99.90;;;;;;5051005;28;20806;-73
2023/10/10 01:06:41;;;;;;;19.40;4.50;;;16.90;99.90;;;;;;5049744;28;20463;-73
2023/10/10 01:09:28;;;;;;;24.90;4.40;;;17.00;99.90;;;;;;5051005;28;20672;-72
2023/10/10 01:11:54;;;;;;;22.57;5.07;;;17.00;99.90;;;;;;5051005;28;20436;-72
2023/10/10 01:14:24;;;;;;;14.83;4.63;;;17.10;99.90;;;;;;5049304;28;20442;-73
2023/10/10 01:16:54;;;;;;;14.83;4.67;;;17.10;99.90;;;;;;5049431;28;20586;-73
2023/10/10 01:19:21;;;;;;;10.63;4.17;;;17.10;99.90;;;;;;5050827;28;20972;-73
2023/10/10 01:21:57;;;;;;;15.23;4.80;;;17.10;99.90;;;;;;5050422;28;20436;-73
2023/10/10 01:24:26;;;;;;;15.13;4.00;;;17.00;99.90;;;;;;5050811;28;20417;-72
2023/10/10 01:26:53;;;;;;;14.70;4.07;;;17.00;99.90;;;;;;5050522;28;20452;-73
2023/10/10 01:29:27;;;;;;;28.87;5.23;;;17.00;99.90;;;;;;5050585;28;20487;-73
2023/10/10 01:31:53;;;;;;;22.07;5.80;;;16.90;99.90;;;;;;5050544;28;20455;-72
2023/10/10 01:34:39;;;;;;;15.40;4.47;;;16.90;99.90;;;;;;5050612;28;20430;-73
2023/10/10 01:37:29;;;;;;;18.60;5.10;;;16.90;99.90;;;;;;5050582;28;20477;-73
2023/10/10 01:42:43;;;;;;;14.30;4.97;;;16.90;99.90;;;;;;5049687;28;20429;-73
2023/10/10 01:45:09;;;;;;;15.13;4.40;;;17.00;99.90;;;;;;5049469;28;20430;-73
2023/10/10 01:47:35;;;;;;;19.80;4.40;;;17.00;99.90;;;;;;5050785;28;20787;-73
2023/10/10 01:50:07;;;;;;;23.93;4.57;;;17.00;99.90;;;;;;5049576;28;20534;-72
2023/10/10 01:52:36;;;;;;;16.67;5.07;;;17.00;99.90;;;;;;5049591;28;20508;-73
2023/10/10 01:55:01;;;;;;;21.47;5.17;;;16.90;99.90;;;;;;5049628;28;20450;-72
2023/10/10 01:57:27;;;;;;;23.03;5.47;;;16.90;99.90;;;;;;5051045;28;20492;-72
2023/10/10 01:59:53;;;;;;;29.57;4.50;;;16.80;99.90;;;;;;5049335;28;20189;-73
2023/10/10 02:02:23;;;;;;;22.03;4.97;;;16.90;99.90;;;;;;5049376;28;20205;-74
2023/10/10 02:04:51;;;;;;;20.80;4.50;;;16.90;99.90;;;;;;5050764;28;20198;-73
2023/10/10 02:07:23;;;;;;;22.47;5.43;;;16.90;99.90;;;;;;5050637;28;20827;-74
2023/10/10 02:12:38;;;;;;;23.93;4.50;;;16.90;99.90;;;;;;5050713;28;20765;-72
2023/10/10 02:15:11;;;;;;;17.77;4.83;;;17.00;99.90;;;;;;5050694;28;21127;-73
2023/10/10 02:17:51;;;;;;;17.50;5.60;;;17.00;99.90;;;;;;5050203;28;20515;-73
2023/10/10 02:23:01;;;;;;;22.57;5.33;;;16.80;99.90;;;;;;5050213;28;20417;-74
2023/10/10 02:27:55;;;;;;;18.23;4.70;;;16.70;99.90;;;;;;5048294;28;20485;-73
2023/10/10 02:30:34;;;;;;;19.70;5.37;;;16.70;99.90;;;;;;5048133;28;20196;-73
2023/10/10 02:35:54;;;;;;;22.73;4.60;;;16.50;99.90;;;;;;5049052;28;20445;-73
2023/10/10 02:38:40;;;;;;;18.07;5.50;;;16.60;99.90;;;;;;5049372;28;20480;-73
2023/10/10 02:44:09;;;;;;;14.17;4.77;;;16.30;99.90;;;;;;5049020;28;20437;-73
2023/10/10 02:46:40;;;;;;;15.90;5.17;;;16.20;99.90;;;;;;5047643;28;20446;-72
2023/10/10 02:51:56;;;;;;;21.43;5.50;;;16.20;99.90;;;;;;5049084;28;20426;-72
2023/10/10 02:56:56;;;;;;;14.43;4.07;;;16.20;99.90;;;;;;5048777;28;20468;-72
2023/10/10 02:59:31;;;;;;;23.77;4.73;;;16.20;99.90;;;;;;5048750;28;20438;-73
2023/10/10 03:01:57;;;;;;;22.40;5.20;;;16.10;99.90;;;;;;5048226;28;20869;-73
2023/10/10 03:04:52;;;;;;;24.93;5.43;;;16.20;99.90;;;;;;5046535;28;20474;-73
2023/10/10 03:07:20;;;;;;;17.37;4.87;;;16.20;99.90;;;;;;5047852;28;20534;-72
2023/10/10 03:10:06;;;;;;;16.33;4.03;;;16.30;99.90;;;;;;5047898;28;20422;-73
2023/10/10 03:12:37;;;;;;;15.53;4.33;;;16.30;99.90;;;;;;5047885;28;20426;-73
2023/10/10 03:15:13;;;;;;;26.00;5.03;;;16.40;99.90;;;;;;5047836;28;20824;-73
2023/10/10 03:18:14;;;;;;;16.57;5.27;;;16.30;99.90;;;;;;5047753;28;20499;-73
2023/10/10 03:25:45;;;;;;;20.03;5.70;;;16.00;99.90;;;;;;5046474;28;20236;-72
2023/10/10 03:28:40;;;;;;;23.53;4.97;;;15.90;99.90;;;;;;5046257;28;20541;-73
2023/10/10 03:31:08;;;;;;;21.30;4.90;;;15.80;99.90;;;;;;5045880;28;20431;-73
2023/10/10 03:33:37;;;;;;;15.70;4.50;;;15.70;99.90;;;;;;5047715;28;20955;-73
2023/10/10 03:36:13;;;;;;;22.80;5.70;;;15.60;99.90;;;;;;5047349;28;20443;-73
2023/10/10 05:25:31;;;;;;;19.10;4.70;;;13.20;99.90;;;;;;5069840;28;20441;-73
2023/10/10 05:27:58;;;;;;;20.97;5.13;;;13.20;99.90;;;;;;5070830;28;20811;-73
2023/10/10 05:30:25;;;;;;;30.40;6.07;;;13.10;99.90;;;;;;5070972;28;20589;-73
2023/10/10 05:33:02;;;;;;;22.30;5.63;;;13.10;99.90;;;;;;5069255;28;20482;-73
2023/10/10 05:35:29;;;;;;;20.17;4.83;;;13.10;99.90;;;;;;5070670;28;20449;-72
2023/10/10 05:37:55;;;;;;;23.80;6.03;;;13.10;99.90;;;;;;5070853;28;20416;-73
2023/10/10 05:40:21;;;;;;;21.40;4.97;;;13.10;99.90;;;;;;5070765;28;20424;-72
2023/10/10 05:42:46;;;;;;;16.50;5.17;;;13.10;99.90;;;;;;5070494;28;20470;-73
2023/10/10 05:45:14;;;;;;;30.03;6.10;;;13.00;99.90;;;;;;5070518;28;20199;-71
2023/10/10 05:47:40;;;;;;;12.40;4.77;;;13.10;99.90;;;;;;5070575;28;20183;-73
2023/10/10 05:50:10;;;;;;;17.03;6.10;;;13.10;99.90;;;;;;5070577;28;20428;-72
2023/10/10 05:52:38;;;;;;;20.60;6.20;;;13.10;99.90;;;;;;5069114;28;20475;-72
2023/10/10 05:55:10;;;;;;;26.20;5.83;;;13.10;99.90;;;;;;5069300;28;20972;-72
2023/10/10 05:57:36;;;;;;;28.30;5.53;;;13.10;99.90;;;;;;5070484;28;20420;-73
2023/10/10 06:00:12;;;;;;;22.13;5.50;;;13.10;99.90;;;;;;5070586;28;20539;-72
2023/10/10 06:02:41;;;;;;;25.93;5.27;;;13.00;99.90;;;;;;5068828;28;20555;-72
2023/10/10 06:05:08;;;;;;;14.03;4.53;;;13.00;99.90;;;;;;5070270;28;20950;-72
2023/10/10 06:07:37;;;;;;;19.23;5.27;;;13.00;99.90;;;;;;5070277;28;20441;-72
2023/10/10 06:10:06;;;;;;;18.00;5.17;;;13.00;99.90;;;;;;5068880;28;20425;-72
2023/10/10 06:12:36;;;;;;;25.93;5.80;;;13.10;99.90;;;;;;5068838;28;20832;-72
2023/10/10 06:15:05;;;;;;;19.03;5.17;;;13.10;99.90;;;;;;5070547;28;20443;-72
2023/10/10 06:17:34;;;;;;;20.87;5.73;;;13.10;99.90;;;;;;5070309;28;20452;-73
2023/10/10 06:20:10;;;;;;;18.33;6.40;;;13.20;99.90;;;;;;5070394;28;20417;-73
2023/10/10 06:22:37;;;;;;;21.07;6.50;;;13.30;99.90;;;;;;5070485;28;20504;-73
2023/10/10 06:25:05;;;;;;;16.67;5.70;;;13.40;99.90;;;;;;5068361;28;20443;-72
2023/10/10 06:27:33;;;;;;;21.87;6.30;;;13.40;99.90;;;;;;5070626;28;20417;-72
2023/10/10 06:29:59;;;;;;;17.50;6.10;;;13.40;99.90;;;;;;5053056;28;21104;-72
2023/10/10 06:32:31;;;;;;;23.83;5.53;;;13.50;99.90;;;;;;5052312;28;20431;-73
2023/10/10 06:37:45;;;;;;;18.00;5.67;;;13.60;99.90;;;;;;5070398;28;20389;-73
2023/10/10 06:40:13;;;;;;;14.73;5.60;;;13.70;99.90;;;;;;5070391;28;20417;-73
2023/10/10 06:42:44;;;;;;;18.17;5.50;;;13.70;99.90;;;;;;5068821;28;20478;-72
2023/10/10 06:45:11;;;;;;;16.53;5.00;;;13.90;99.90;;;;;;5069982;28;20432;-72
2023/10/10 06:47:43;;;;;;;17.73;5.53;;;13.80;99.90;;;;;;5068348;28;20476;-72
2023/10/10 06:50:12;;;;;;;35.77;6.37;;;13.80;99.90;;;;;;5069393;28;20529;-72
2023/10/10 06:52:43;;;;;;;12.43;5.47;;;13.80;99.90;;;;;;5069268;28;20431;-72
2023/10/10 06:55:13;;;;;;;21.63;5.70;;;13.90;99.90;;;;;;5068150;28;20455;-73
2023/10/10 06:57:39;;;;;;;23.87;7.20;;;14.00;99.90;;;;;;5067917;28;20556;-72
2023/10/10 07:00:20;;;;;;;20.33;5.97;;;14.20;99.90;;;;;;5069203;28;20421;-72
2023/10/10 07:02:53;;;;;;;24.10;5.57;;;14.30;99.90;;;;;;5067522;28;20610;-72
2023/10/10 07:05:19;;;;;;;20.50;6.13;;;14.30;99.90;;;;;;5068987;28;20438;-72
2023/10/10 07:07:56;;;;;;;25.57;5.63;;;14.40;99.90;;;;;;5069168;28;20417;-72
2023/10/10 07:10:35;;;;;;;21.60;6.50;;;14.40;99.90;;;;;;5068142;28;20793;-71
2023/10/10 07:13:10;;;;;;;19.77;6.83;;;14.50;99.90;;;;;;5068901;28;20432;-71
2023/10/10 07:15:37;;;;;;;23.07;5.33;;;14.60;99.90;;;;;;5068756;28;21004;-71
2023/10/10 07:18:40;;;;;;;14.73;5.63;;;14.50;99.90;;;;;;5068859;28;20860;-71
2023/10/10 07:24:02;;;;;;;18.87;6.30;;;14.50;99.90;;;;;;5068970;28;20404;-72
2023/10/10 07:26:30;;;;;;;15.97;5.80;;;14.50;99.90;;;;;;5068448;28;20976;-71
2023/10/10 07:28:57;;;;;;;24.90;6.60;;;14.60;99.90;;;;;;5068993;28;20856;-71
2023/10/10 07:31:24;;;;;;;22.87;6.60;;;14.60;99.90;;;;;;5070823;28;20450;-72
2023/10/10 07:34:04;;;;;;;27.43;6.70;;;14.80;99.90;;;;;;5068544;28;20427;-72
2023/10/10 07:36:31;;;;;;;16.17;6.63;;;14.90;99.90;;;;;;5068418;28;20528;-72
2023/10/10 07:41:45;;;;;;;21.23;6.57;;;15.10;99.90;;;;;;5068333;28;20468;-72
2023/10/10 07:44:12;;;;;;;26.60;6.80;;;15.20;99.90;;;;;;5067014;28;20428;-72
2023/10/10 07:46:37;;;;;;;15.87;5.77;;;15.40;99.90;;;;;;5068431;28;20434;-72
2023/10/10 07:49:03;;;;;;;19.43;5.50;;;15.40;99.90;;;;;;5068478;28;20427;-72
2023/10/10 07:51:29;;;;;;;21.50;6.43;;;15.50;99.90;;;;;;5068404;28;20186;-72
2023/10/10 07:54:13;;;;;;;21.10;5.47;;;15.60;99.90;;;;;;5068441;28;20272;-72
2023/10/10 07:56:45;;;;;;;27.87;5.63;;;15.80;99.90;;;;;;5066768;28;20990;-72
2023/10/10 07:59:17;;;;;;;18.37;5.60;;;15.90;99.90;;;;;;5068308;28;20415;-72
2023/10/10 08:01:44;;;;;;;18.43;6.07;;;16.00;99.90;;;;;;5068142;28;20487;-72
2023/10/10 08:04:14;;;;;;;24.37;5.90;;;16.10;99.90;;;;;;5066701;28;20423;-72
2023/10/10 08:06:44;;;;;;;23.57;5.90;;;16.10;99.90;;;;;;5068520;28;20438;-72
2023/10/10 08:11:42;;;;;;;22.00;6.07;;;16.30;99.90;;;;;;5068140;28;20857;-72
2023/10/10 08:14:08;;;;;;;12.80;5.33;;;16.30;99.90;;;;;;5066502;28;20462;-72
2023/10/10 08:16:39;;;;;;;18.03;5.30;;;16.50;99.90;;;;;;5066912;28;20232;-72
2023/10/10 08:19:07;;;;;;;17.13;5.50;;;16.40;99.90;;;;;;5068183;28;20850;-72
2023/10/10 08:21:38;;;;;;;18.50;5.57;;;16.60;99.90;;;;;;5068224;28;20491;-72
2023/10/10 08:24:04;;;;;;;14.77;5.50;;;16.60;99.90;;;;;;5068019;28;20417;-72
2023/10/10 08:26:38;;;;;;;20.23;5.47;;;16.80;99.90;;;;;;5066381;28;20488;-72
2023/10/10 08:29:06;;;;;;;15.10;5.83;;;16.90;99.90;;;;;;5066462;28;20417;-72
2023/10/10 08:31:32;;;;;;;14.13;5.60;;;17.00;99.90;;;;;;5068049;28;20454;-72
2023/10/10 08:33:58;;;;;;;17.53;4.37;;;17.20;99.90;;;;;;5067919;28;20462;-72
2023/10/10 08:36:24;;;;;;;20.53;6.30;;;17.40;99.90;;;;;;5067954;28;20530;-72
2023/10/10 08:38:57;;;;;;;34.77;7.40;;;17.60;99.90;;;;;;5066442;28;20263;-72
2023/10/10 08:41:27;;;;;;;23.83;5.83;;;17.70;99.90;;;;;;5067948;28;20644;-72
2023/10/10 08:43:58;;;;;;;24.33;5.17;;;18.00;99.90;;;;;;5067998;28;20433;-72
2023/10/10 08:46:31;;;;;;;13.57;5.30;;;18.10;99.90;;;;;;5066457;28;20477;-73
2023/10/10 08:49:03;;;;;;;18.97;4.80;;;18.40;99.90;;;;;;5070228;28;20471;-73
2023/10/10 08:51:32;;;;;;;18.73;5.10;;;18.80;99.90;;;;;;5070308;28;20432;-73
2023/10/10 08:54:02;;;;;;;20.53;6.10;;;19.10;99.90;;;;;;5070133;28;20431;-72
2023/10/10 08:56:37;;;;;;;24.80;5.77;;;19.40;99.90;;;;;;5070151;28;20440;-72
2023/10/10 08:59:11;;;;;;;22.57;6.70;;;19.80;99.90;;;;;;5070366;28;20432;-73
2023/10/10 09:01:38;;;;;;;14.37;4.83;;;20.20;99.90;;;;;;5071347;28;20472;-73
2023/10/10 09:04:05;;;;;;;24.43;4.90;;;20.80;99.90;;;;;;5071401;28;20446;-73
2023/10/10 09:07:19;;;;;;;21.33;5.70;;;21.10;99.90;;;;;;5069574;28;20434;-72
2023/10/10 09:09:39;;;;;;;26.40;6.83;;;21.60;99.90;;;;;;5068913;28;20484;-73
2023/10/10 09:12:14;;;;;;;30.43;4.80;;;21.90;99.90;;;;;;5069697;28;20433;-73
2023/10/10 09:14:41;;;;;;;21.17;5.40;;;22.30;99.90;;;;;;5071095;28;20476;-73
2023/10/10 09:17:12;;;;;;;19.60;5.60;;;22.80;99.90;;;;;;5069728;28;20873;-72
2023/10/10 09:19:46;;;;;;;23.00;6.40;;;22.60;99.90;;;;;;5071025;28;20419;-74
2023/10/10 09:22:25;;;;;;;29.27;6.50;;;22.50;99.90;;;;;;5069448;28;20482;-73
2023/10/10 09:24:55;;;;;;;21.30;7.10;;;22.30;99.90;;;;;;5069654;28;20896;-72
2023/10/10 09:27:28;;;;;;;22.00;6.33;;;22.50;99.90;;;;;;5070972;28;20510;-73
2023/10/10 09:29:56;;;;;;;16.27;5.80;;;22.50;99.90;;;;;;5070962;28;20778;-73
2023/10/10 09:32:30;;;;;;;17.60;6.53;;;22.60;99.90;;;;;;5070986;28;20427;-74
2023/10/10 09:34:57;;;;;;;15.97;6.00;;;23.00;98.80;;;;;;5070862;28;20487;-73
2023/10/10 09:37:35;;;;;;;29.17;6.37;;;23.20;99.00;;;;;;5070731;28;20934;-73
2023/10/10 09:40:07;;;;;;;17.50;5.33;;;23.10;98.00;;;;;;5069470;28;20425;-73
2023/10/10 09:43:03;;;;;;;19.73;6.10;;;23.40;99.00;;;;;;5069163;28;20839;-73
2023/10/10 09:51:15;;;;;;;21.40;5.60;;;24.20;95.30;;;;;;5070514;28;20500;-73
2023/10/10 09:53:47;;;;;;;33.50;6.43;;;24.50;96.90;;;;;;5070470;28;20430;-73
2023/10/10 09:56:15;;;;;;;29.40;5.90;;;24.80;94.90;;;;;;5069201;28;20562;-73
2023/10/10 09:58:43;;;;;;;16.10;4.97;;;25.00;94.20;;;;;;5070343;28;21189;-73
2023/10/10 10:01:14;;;;;;;22.30;6.63;;;25.30;94.30;;;;;;5052086;28;21094;-73
2023/10/10 10:04:00;;;;;;;20.93;5.23;;;25.30;92.70;;;;;;5070222;28;20938;-73
2023/10/10 10:06:38;;;;;;;28.93;5.13;;;25.20;91.00;;;;;;5068620;28;20452;-73
2023/10/10 10:09:20;;;;;;;24.77;7.63;;;25.50;91.90;;;;;;5070217;28;20410;-73
2023/10/10 10:12:04;;;;;;;20.67;5.00;;;25.30;91.20;;;;;;5070091;28;20427;-73
2023/10/10 10:14:55;;;;;;;28.77;5.80;;;25.50;90.80;;;;;;5070381;28;20420;-72
2023/10/10 10:17:48;;;;;;;20.70;5.77;;;25.30;90.10;;;;;;5070204;28;20441;-72
2023/10/10 10:23:46;;;;;;;25.47;5.53;;;25.30;91.20;;;;;;5069759;28;21125;-72
2023/10/10 10:26:31;;;;;;;19.43;5.47;;;25.20;90.40;;;;;;5069645;28;20448;-72
2023/10/10 10:28:58;;;;;;;17.83;4.80;;;25.20;90.20;;;;;;5069820;28;20872;-73
2023/10/10 10:31:29;;;;;;;19.53;4.67;;;25.10;90.00;;;;;;5068345;28;20428;-72
2023/10/10 10:34:10;;;;;;;26.10;5.70;;;25.40;89.40;;;;;;5069655;28;20925;-73
2023/10/10 10:36:43;;;;;;;18.63;5.30;;;25.20;90.60;;;;;;5069566;28;20453;-73
2023/10/10 10:39:22;;;;;;;24.00;4.60;;;25.30;90.60;;;;;;5069640;28;20416;-73
2023/10/10 10:41:54;;;;;;;19.30;5.17;;;25.30;90.50;;;;;;5051442;28;20944;-73
2023/10/10 10:44:47;;;;;;;21.80;5.53;;;25.40;90.30;;;;;;5069512;28;20412;-73
2023/10/10 10:47:34;;;;;;;25.40;4.90;;;25.20;89.30;;;;;;5069884;28;20408;-73
2023/10/10 10:50:04;;;;;;;17.20;5.10;;;25.10;89.70;;;;;;5067909;28;20475;-74
2023/10/10 10:53:04;;;;;;;27.53;6.20;;;24.90;87.80;;;;;;5069398;28;20417;-73
2023/10/10 10:55:30;;;;;;;20.53;6.00;;;24.90;87.50;;;;;;5069130;28;21271;-73
2023/10/10 10:58:07;;;;;;;24.43;5.40;;;24.90;89.00;;;;;;5068179;28;20432;-73
2023/10/10 11:03:34;;;;;;;15.73;4.53;;;24.80;87.60;;;;;;5069298;28;20437;-72
2023/10/10 11:06:06;;;;;;;23.63;5.33;;;24.80;87.80;;;;;;5067988;28;21029;-73
2023/10/10 11:13:54;;;;;;;22.83;5.10;;;25.10;87.50;;;;;;5069476;28;20536;-72
2023/10/10 11:16:36;;;;;;;20.30;6.00;;;25.30;88.60;;;;;;5067652;28;20444;-72
2023/10/10 11:19:12;;;;;;;15.87;5.33;;;25.30;90.80;;;;;;5069049;28;21266;-72
2023/10/10 11:21:47;;;;;;;17.10;5.53;;;25.70;92.50;;;;;;5067526;28;20835;-73
2023/10/10 11:24:14;;;;;;;29.53;5.90;;;25.50;90.10;;;;;;5068904;28;20420;-72
2023/10/10 11:26:40;;;;;;;27.90;5.00;;;25.80;92.00;;;;;;5068641;28;20963;-73
2023/10/10 11:29:28;;;;;;;26.17;5.10;;;25.90;90.00;;;;;;5068650;28;20508;-73
2023/10/10 11:32:13;;;;;;;20.43;5.80;;;25.90;90.00;;;;;;5068715;28;20964;-72
2023/10/10 11:34:44;;;;;;;19.50;4.97;;;26.10;86.30;;;;;;5066839;28;20450;-73
2023/10/10 11:37:32;;;;;;;21.43;5.00;;;26.20;87.40;;;;;;5068665;28;20433;-72
2023/10/10 11:40:31;;;;;;;20.27;4.90;;;26.10;84.30;;;;;;5067307;28;20482;-72
2023/10/10 11:43:11;;;;;;;36.97;6.20;;;26.00;87.20;;;;;;5068557;28;20461;-73
2023/10/10 11:45:40;;;;;;;19.33;5.30;;;25.80;80.20;;;;;;5068461;28;20984;-73
2023/10/10 11:48:13;;;;;;;20.93;4.97;;;25.90;83.70;;;;;;5068449;28;20427;-73
2023/10/10 11:50:56;;;;;;;19.37;5.90;;;25.80;81.80;;;;;;5068446;28;20519;-73
2023/10/10 11:53:30;;;;;;;20.67;5.83;;;25.60;82.20;;;;;;5068262;28;20412;-73
2023/10/10 11:56:11;;;;;;;14.90;4.87;;;25.60;80.80;;;;;;5068315;28;20852;-73
2023/10/10 11:58:37;;;;;;;21.53;5.27;;;25.40;84.30;;;;;;5067105;28;20429;-72
2023/10/10 12:01:05;;;;;;;19.90;5.00;;;25.40;81.70;;;;;;5068211;28;21298;-73
2023/10/10 12:03:41;;;;;;;17.93;5.20;;;25.40;81.00;;;;;;5068291;28;20187;-73
2023/10/10 12:06:26;;;;;;;28.80;5.03;;;25.50;81.20;;;;;;5068289;28;20830;-73
2023/10/10 12:08:53;;;;;;;16.60;5.13;;;25.50;81.50;;;;;;5068531;28;20478;-73
2023/10/10 12:11:22;;;;;;;22.73;6.60;;;25.60;80.30;;;;;;5066939;28;20915;-73
2023/10/10 12:13:50;;;;;;;20.90;5.10;;;25.60;80.70;;;;;;5068231;28;20953;-73
2023/10/10 12:16:17;;;;;;;18.83;5.00;;;25.60;82.30;;;;;;5068164;28;20446;-73
2023/10/10 12:18:45;;;;;;;20.87;5.37;;;25.50;83.40;;;;;;5068302;28;20792;-73
2023/10/10 12:21:20;;;;;;;21.73;5.77;;;25.60;81.10;;;;;;5068163;28;20450;-73
2023/10/10 12:23:52;;;;;;;22.27;5.00;;;25.50;82.20;;;;;;5070308;28;20427;-72
2023/10/10 12:26:18;;;;;;;19.53;5.03;;;25.70;80.90;;;;;;5070850;28;20449;-73
2023/10/10 12:28:47;;;;;;;20.33;5.43;;;25.70;80.50;;;;;;5070739;28;20412;-73
2023/10/10 12:31:16;;;;;;;24.93;5.63;;;25.60;80.30;;;;;;5072148;28;20183;-72
2023/10/10 12:33:45;;;;;;;16.77;5.40;;;25.60;80.50;;;;;;5072038;28;20528;-72
2023/10/10 12:36:11;;;;;;;15.50;5.60;;;25.50;77.70;;;;;;5072003;28;20436;-73
2023/10/10 12:38:40;;;;;;;21.57;5.30;;;25.60;78.30;;;;;;5072044;28;20507;-73
2023/10/10 12:41:06;;;;;;;18.67;6.47;;;25.40;77.80;;;;;;5070474;28;21077;-73
2023/10/10 12:43:31;;;;;;;18.07;6.13;;;25.40;75.00;;;;;;5071895;28;20417;-72
2023/10/10 12:46:00;;;;;;;15.07;5.30;;;25.30;75.50;;;;;;5071743;28;20763;-72
2023/10/10 12:48:26;;;;;;;23.33;6.07;;;25.20;76.20;;;;;;5070643;28;20217;-73
2023/10/10 12:50:52;;;;;;;15.60;5.43;;;25.20;76.40;;;;;;5071817;28;20514;-73
2023/10/10 12:53:20;;;;;;;11.57;4.40;;;25.20;74.00;;;;;;5071917;28;20178;-72
2023/10/10 12:55:49;;;;;;;23.43;5.33;;;25.10;72.80;;;;;;5071668;28;20455;-73
2023/10/10 12:58:19;;;;;;;14.73;5.10;;;25.10;71.60;;;;;;5070197;28;21158;-72
2023/10/10 13:00:51;;;;;;;13.33;5.10;;;25.00;73.70;;;;;;5069953;28;20522;-73
2023/10/10 13:03:18;;;;;;;17.63;5.60;;;25.10;73.70;;;;;;5071702;28;21005;-73
2023/10/10 13:05:47;;;;;;;19.73;6.87;;;25.00;75.30;;;;;;5071859;28;20428;-73
2023/10/10 13:08:15;;;;;;;11.67;5.53;;;25.00;74.80;;;;;;5071779;28;20443;-72
2023/10/10 13:10:42;;;;;;;17.83;5.13;;;25.00;74.90;;;;;;5071704;28;20422;-72
2023/10/10 13:13:08;;;;;;;15.33;5.27;;;24.90;74.00;;;;;;5070779;28;20452;-72
2023/10/10 13:15:47;;;;;;;14.13;5.77;;;24.90;75.40;;;;;;5070590;28;20969;-72
2023/10/10 13:18:19;;;;;;;19.10;6.00;;;24.90;77.00;;;;;;5071852;28;20186;-73
2023/10/10 13:20:50;;;;;;;20.60;5.37;;;24.90;76.50;;;;;;5070610;28;20433;-72
2023/10/10 13:23:18;;;;;;;23.03;5.67;;;24.90;79.10;;;;;;5071951;28;20465;-71
2023/10/10 13:25:48;;;;;;;21.80;5.70;;;24.90;77.50;;;;;;5070528;28;20448;-73
2023/10/10 13:28:17;;;;;;;18.13;6.50;;;24.90;76.60;;;;;;5070753;28;20792;-72
2023/10/10 13:30:46;;;;;;;27.00;7.30;;;24.90;76.60;;;;;;5070311;28;20424;-73
2023/10/10 13:33:13;;;;;;;20.03;5.93;;;24.90;74.20;;;;;;5071474;28;20418;-72
2023/10/10 13:35:39;;;;;;;27.87;5.43;;;24.90;76.20;;;;;;5070953;28;21034;-73
2023/10/10 13:38:06;;;;;;;16.63;6.30;;;24.70;78.80;;;;;;5071212;28;20470;-72
2023/10/10 13:40:38;;;;;;;15.77;5.83;;;24.70;77.80;;;;;;5069492;28;20573;-72
2023/10/10 13:43:10;;;;;;;15.30;5.73;;;24.70;77.10;;;;;;5070769;28;20558;-72
2023/10/10 13:45:38;;;;;;;18.83;5.67;;;24.70;74.90;;;;;;5069198;28;20441;-72
2023/10/10 13:48:08;;;;;;;17.43;4.67;;;24.70;75.70;;;;;;5070763;28;20496;-72
2023/10/10 13:50:41;;;;;;;15.43;5.40;;;24.70;76.50;;;;;;5069260;28;20428;-73
2023/10/10 13:53:14;;;;;;;13.77;4.93;;;24.60;73.10;;;;;;5053643;28;20431;-72
2023/10/10 13:55:44;;;;;;;16.07;5.27;;;24.50;75.40;;;;;;5070669;28;20470;-73
2023/10/10 13:58:14;;;;;;;22.83;6.43;;;24.40;75.20;;;;;;5070584;28;20421;-72
2023/10/10 14:00:52;;;;;;;13.13;5.60;;;24.30;74.80;;;;;;5070457;28;20424;-72
2023/10/10 14:03:28;;;;;;;19.67;5.83;;;24.20;73.80;;;;;;5070721;28;20464;-72
2023/10/10 14:06:03;;;;;;;17.43;5.27;;;24.20;72.70;;;;;;5068969;28;20459;-72
2023/10/10 14:08:30;;;;;;;9.90;4.70;;;24.10;74.20;;;;;;5070429;28;20456;-72
2023/10/10 14:10:59;;;;;;;15.87;5.50;;;24.00;78.30;;;;;;5068915;28;21180;-72
2023/10/10 14:13:28;;;;;;;18.60;5.57;;;23.90;77.00;;;;;;5070156;28;20511;-72
2023/10/10 14:15:54;;;;;;;13.70;5.40;;;23.90;77.50;;;;;;5068817;28;20525;-72
2023/10/10 14:18:27;;;;;;;14.50;4.30;;;23.80;81.50;;;;;;5070424;28;20880;-73
2023/10/10 14:20:53;;;;;;;18.87;5.77;;;23.80;80.60;;;;;;5070567;28;20470;-70
2023/10/10 14:23:25;;;;;;;19.80;3.87;;;23.70;78.90;;;;;;5070543;28;20459;-70
2023/10/10 14:25:52;;;;;;;13.63;5.27;;;23.60;82.10;;;;;;5067813;28;20516;-69
2023/10/10 14:28:18;;;;;;;13.30;4.47;;;23.60;83.20;;;;;;5069146;28;20989;-69
2023/10/10 14:30:50;;;;;;;13.53;5.07;;;23.60;86.80;;;;;;5069128;28;20420;-70
2023/10/10 14:33:17;;;;;;;14.27;5.00;;;23.60;80.30;;;;;;5069276;28;20466;-69
2023/10/10 14:35:46;;;;;;;12.23;4.77;;;23.50;86.20;;;;;;5067585;28;20961;-69
2023/10/10 14:38:15;;;;;;;11.77;4.73;;;23.50;84.30;;;;;;5069133;28;20420;-69
2023/10/10 14:40:41;;;;;;;17.87;5.00;;;23.50;83.50;;;;;;5069183;28;20428;-69
2023/10/10 14:43:09;;;;;;;23.03;5.67;;;23.40;78.90;;;;;;5069063;28;20465;-69
2023/10/10 14:45:36;;;;;;;20.30;5.20;;;23.30;81.80;;;;;;5066525;28;20454;-71
2023/10/10 14:48:06;;;;;;;21.20;5.47;;;23.40;85.30;;;;;;5067599;28;20420;-70
2023/10/10 14:50:42;;;;;;;25.70;6.17;;;23.30;88.10;;;;;;5067391;28;20467;-70
2023/10/10 14:53:11;;;;;;;16.50;5.80;;;23.20;89.60;;;;;;5068613;28;20505;-70
2023/10/10 14:55:39;;;;;;;12.63;4.77;;;23.10;87.50;;;;;;5068428;28;20435;-70
2023/10/10 14:58:09;;;;;;;14.43;5.77;;;23.10;87.00;;;;;;5066517;28;20955;-70
2023/10/10 15:00:40;;;;;;;13.37;4.53;;;23.00;90.70;;;;;;5068242;28;20951;-69
2023/10/10 15:03:13;;;;;;;18.33;4.43;;;23.00;88.50;;;;;;5066599;28;20501;-69
2023/10/10 15:05:52;;;;;;;13.93;5.20;;;23.00;86.20;;;;;;5067666;28;20435;-69
2023/10/10 15:08:22;;;;;;;20.97;5.20;;;23.00;88.20;;;;;;5067975;28;20422;-69
2023/10/10 15:10:51;;;;;;;33.80;5.70;;;22.90;90.70;;;;;;5067649;28;20405;-69
2023/10/10 15:13:17;;;;;;;17.97;6.10;;;22.90;90.40;;;;;;5067636;28;20424;-71
2023/10/10 15:15:48;;;;;;;11.83;5.03;;;22.80;89.20;;;;;;5067507;28;20442;-70
2023/10/10 15:18:17;;;;;;;15.57;5.47;;;22.80;90.30;;;;;;5067690;28;20401;-70
2023/10/10 15:20:48;;;;;;;14.53;5.53;;;22.70;88.40;;;;;;5067545;28;20427;-70
2023/10/10 15:23:19;;;;;;;16.53;5.00;;;22.70;88.40;;;;;;5067263;28;21113;-71
2023/10/10 15:26:05;;;;;;;13.40;5.53;;;22.60;88.80;;;;;;5067398;28;20444;-70
2023/10/10 15:28:31;;;;;;;14.37;4.77;;;22.50;90.00;;;;;;5065984;28;20468;-70
2023/10/10 15:30:57;;;;;;;12.50;4.83;;;22.40;90.50;;;;;;5067288;28;20448;-71
2023/10/10 15:33:25;;;;;;;16.07;6.07;;;22.40;91.30;;;;;;5067265;28;20422;-70
2023/10/10 15:35:52;;;;;;;15.53;4.83;;;22.30;90.60;;;;;;5065945;28;21115;-70
2023/10/10 15:38:18;;;;;;;28.63;5.60;;;22.20;89.00;;;;;;5067230;28;20413;-71
2023/10/10 15:40:46;;;;;;;24.50;5.00;;;22.10;89.80;;;;;;5065973;28;20495;-71
2023/10/10 15:43:12;;;;;;;13.70;5.37;;;22.10;89.30;;;;;;5065430;28;20465;-70
2023/10/10 15:45:41;;;;;;;10.63;4.97;;;22.00;88.80;;;;;;5065902;28;20439;-70